Terminal Aerodrome Forecast
Issued by NWS Paducah, KY

Home | Current Version | Previous Version | Text Only | Print | Product List | Glossary On
Versions: 1 2 3 4 5 6 7 8 9 10 11 12 13 14 15 16 17 18 19 20 21 22 23
000
FTUS43 KPAH 200247 AAA
TAFEVV
TAF AMD
KEVV 200247Z 2003/2024 12005KT 5SM -SHRA OVC006
      TEMPO 2003/2006 2SM SHRA BR OVC002
     FM200600 VRB04KT 4SM -SHRA BR OVC006
     FM200800 VRB04KT 4SM BR VCSH OVC007
     FM201200 20005KT 5SM BR OVC005
     FM202000 20009KT 6SM BR OVC012=

USA.gov is the U.S. government's official web portal to all federal, state and local government web resources and services.